Time;durP1;ratioP1;P1;durP2;ratioP2;P2;SDS_P1;SDS_P2;PMS_P1;PMS_P2;Temp;Humidity;BMP_temperature;BMP_pressure;BME280_temperature;BME280_humidity;BME280_pressure;Samples;Min_cycle;Max_cycle;Signal;HPM_P1;HPM_P2
2022/10/10 16:00:06;;;;;;;18.00;4.90;;;20.50;63.20;;;;;;5067323;28;20428;-76
2022/10/10 16:02:38;;;;;;;11.77;4.40;;;20.60;63.60;;;;;;5068135;28;20040;-77
2022/10/10 16:05:04;;;;;;;14.27;5.18;;;20.60;63.20;;;;;;5068973;28;20044;-75
2022/10/10 16:07:29;;;;;;;20.60;4.80;;;20.60;63.20;;;;;;5067154;28;20403;-76
2022/10/10 16:09:56;;;;;;;17.10;5.30;;;20.70;63.60;;;;;;5069058;28;20107;-76
2022/10/10 16:12:22;;;;;;;17.60;5.20;;;20.70;63.40;;;;;;5068859;28;20029;-77
2022/10/10 16:14:48;;;;;;;19.25;5.20;;;20.70;63.60;;;;;;5053950;28;20078;-76
2022/10/10 16:17:13;;;;;;;10.63;4.60;;;20.80;63.70;;;;;;5062552;28;20032;-76
2022/10/10 16:19:39;;;;;;;12.05;5.18;;;20.70;62.90;;;;;;5067463;28;20049;-76
2022/10/10 16:22:05;;;;;;;13.10;5.00;;;20.70;62.80;;;;;;5067310;28;20032;-76
2022/10/10 16:24:31;;;;;;;10.77;4.82;;;20.70;62.90;;;;;;5068346;28;20077;-76
2022/10/10 16:26:58;;;;;;;18.88;5.10;;;20.70;63.10;;;;;;5058466;28;20091;-76
2022/10/10 16:29:24;;;;;;;13.15;4.53;;;20.70;63.20;;;;;;5059830;28;20029;-76
2022/10/10 16:31:49;;;;;;;11.02;5.00;;;20.70;63.00;;;;;;5068317;28;20089;-75
2022/10/10 16:34:16;;;;;;;13.32;4.80;;;20.70;62.40;;;;;;5068394;28;20028;-76
2022/10/10 16:36:42;;;;;;;13.35;4.95;;;20.70;62.40;;;;;;5067652;28;20085;-76
2022/10/10 16:39:08;;;;;;;8.70;4.32;;;20.70;62.60;;;;;;5068429;28;20029;-76
2022/10/10 16:41:33;;;;;;;11.38;5.03;;;20.70;62.00;;;;;;5068362;28;20035;-77
2022/10/10 16:44:00;;;;;;;10.10;4.53;;;20.70;62.30;;;;;;5050695;28;20048;-82
2022/10/10 16:46:26;;;;;;;70.97;44.58;;;20.70;62.40;;;;;;5068016;28;20035;-81
2022/10/10 16:48:56;;;;;;;35.47;21.58;;;20.60;61.70;;;;;;5068060;28;20447;-75
2022/10/10 16:51:22;;;;;;;53.03;31.88;;;20.60;61.30;;;;;;5050269;28;20472;-76
2022/10/10 16:53:49;;;;;;;66.18;40.00;;;20.60;61.20;;;;;;5066660;28;20133;-75
2022/10/10 16:56:18;;;;;;;70.30;43.70;;;20.60;60.50;;;;;;5067551;28;20088;-75
2022/10/10 16:58:44;;;;;;;59.70;38.20;;;20.60;60.00;;;;;;5067152;28;20033;-76
2022/10/10 17:01:14;;;;;;;54.88;32.65;;;20.60;59.90;;;;;;5067092;28;20032;-76
2022/10/10 17:03:40;;;;;;;50.70;29.60;;;20.60;61.00;;;;;;5067669;28;20538;-76
2022/10/10 17:06:11;;;;;;;46.63;30.92;;;20.70;61.30;;;;;;5067084;28;20021;-76
2022/10/10 17:08:38;;;;;;;47.63;30.77;;;20.70;60.70;;;;;;5066423;28;20094;-76
2022/10/10 17:11:04;;;;;;;46.30;29.55;;;20.70;61.30;;;;;;5055470;28;20033;-76
2022/10/10 17:13:30;;;;;;;44.83;28.70;;;20.70;60.80;;;;;;5053114;28;20029;-76
2022/10/10 17:15:56;;;;;;;44.97;29.35;;;20.70;60.70;;;;;;5053911;28;20082;-76
2022/10/10 17:18:22;;;;;;;43.17;28.45;;;20.70;61.00;;;;;;5054019;28;20112;-76
2022/10/10 17:20:48;;;;;;;41.47;27.73;;;20.70;61.90;;;;;;5054154;28;20107;-76
2022/10/10 17:23:15;;;;;;;52.70;29.85;;;20.70;61.30;;;;;;5049683;28;20090;-77
2022/10/10 17:25:43;;;;;;;45.15;28.00;;;20.70;62.20;;;;;;5048636;28;20021;-76
2022/10/10 17:28:09;;;;;;;45.28;28.50;;;20.70;62.10;;;;;;5051311;28;20033;-77
2022/10/10 17:30:44;;;;;;;42.42;27.35;;;20.70;62.10;;;;;;5050325;28;20083;-76
2022/10/10 17:33:11;;;;;;;40.95;26.98;;;20.70;62.10;;;;;;5051233;28;20124;-76
2022/10/10 17:35:47;;;;;;;41.63;26.15;;;20.70;62.00;;;;;;5051004;28;20519;-76
2022/10/10 17:38:14;;;;;;;42.75;27.23;;;20.70;61.90;;;;;;5051249;28;20061;-76
2022/10/10 17:40:40;;;;;;;40.72;26.13;;;20.70;62.00;;;;;;5050999;28;20029;-74
2022/10/10 17:43:07;;;;;;;39.65;26.15;;;20.70;62.30;;;;;;5050721;28;20029;-75
2022/10/10 17:45:34;;;;;;;38.53;25.20;;;20.70;62.30;;;;;;5050336;28;20028;-75
2022/10/10 17:48:00;;;;;;;40.20;26.42;;;20.70;62.40;;;;;;5050213;28;20373;-76
2022/10/10 17:50:26;;;;;;;45.90;26.05;;;20.70;62.30;;;;;;5051507;28;20104;-76
2022/10/10 17:52:52;;;;;;;42.92;25.55;;;20.70;62.20;;;;;;5048977;28;20116;-77
2022/10/10 17:55:18;;;;;;;57.60;26.35;;;20.70;62.20;;;;;;5032762;28;20404;-77
2022/10/10 17:57:44;;;;;;;37.47;24.88;;;20.70;62.50;;;;;;5049290;28;20032;-77
2022/10/10 18:00:10;;;;;;;39.95;24.92;;;20.70;62.30;;;;;;5050609;28;20135;-77
2022/10/10 18:02:36;;;;;;;39.47;24.80;;;20.70;62.20;;;;;;5050812;28;20511;-76
2022/10/10 18:05:02;;;;;;;40.58;24.05;;;20.70;62.30;;;;;;5050657;28;20164;-76
2022/10/10 18:07:28;;;;;;;43.97;24.23;;;20.70;62.40;;;;;;5049085;28;20085;-76
2022/10/10 18:09:54;;;;;;;42.25;24.77;;;20.80;62.70;;;;;;5050860;28;20373;-77
2022/10/10 18:12:20;;;;;;;40.65;23.20;;;20.70;62.50;;;;;;5050976;28;20033;-76
2022/10/10 18:14:46;;;;;;;45.67;24.17;;;20.80;62.50;;;;;;5048885;28;20056;-76
2022/10/10 18:17:12;;;;;;;40.58;23.42;;;20.80;62.00;;;;;;5049730;28;20068;-76
2022/10/10 18:19:38;;;;;;;38.28;24.13;;;20.80;62.40;;;;;;5043843;28;20061;-76
2022/10/10 18:22:04;;;;;;;36.28;22.38;;;20.80;62.60;;;;;;5044878;28;20527;-83
2022/10/10 18:24:30;;;;;;;38.75;23.65;;;20.80;62.80;;;;;;5047632;28;20055;-83
2022/10/10 18:26:56;;;;;;;38.25;20.98;;;20.70;62.70;;;;;;5041244;28;20032;-77
2022/10/10 18:29:22;;;;;;;51.97;27.17;;;20.70;62.10;;;;;;5050297;28;20028;-78
2022/10/10 18:31:47;;;;;;;44.60;28.27;;;20.70;60.50;;;;;;5050883;28;20453;-78
2022/10/10 18:34:13;;;;;;;39.78;26.17;;;20.60;59.40;;;;;;5040975;28;20029;-79
2022/10/10 18:36:41;;;;;;;36.83;22.15;;;20.50;58.70;;;;;;5047455;28;20077;-78
2022/10/10 18:39:12;;;;;;;31.85;18.65;;;20.50;59.20;;;;;;5046048;28;20436;-77
2022/10/10 18:41:39;;;;;;;32.38;21.35;;;20.50;59.00;;;;;;5050421;28;20033;-78
2022/10/10 18:44:07;;;;;;;32.33;21.55;;;20.50;59.60;;;;;;5045812;28;20039;-77
2022/10/10 18:46:34;;;;;;;32.10;20.35;;;20.50;59.80;;;;;;5048545;28;20021;-78
2022/10/10 18:49:01;;;;;;;36.63;20.55;;;20.60;60.50;;;;;;5044702;28;20029;-77
2022/10/10 18:51:28;;;;;;;37.92;19.85;;;20.60;59.90;;;;;;5049414;28;20028;-76
2022/10/10 18:54:02;;;;;;;33.85;19.40;;;20.60;60.30;;;;;;5050306;28;20029;-76
2022/10/10 18:56:29;;;;;;;31.63;19.80;;;20.60;60.30;;;;;;5042633;28;20496;-76
2022/10/10 18:58:57;;;;;;;27.65;19.13;;;20.70;60.60;;;;;;5046509;28;20115;-76
2022/10/10 19:01:25;;;;;;;36.72;20.05;;;20.70;60.20;;;;;;5050072;28;20410;-76
2022/10/10 19:03:52;;;;;;;31.33;19.20;;;20.70;60.60;;;;;;5041352;28;20025;-81
2022/10/10 19:06:19;;;;;;;33.25;19.40;;;20.70;60.50;;;;;;5039163;28;20033;-76
2022/10/10 19:08:45;;;;;;;29.08;18.63;;;20.70;61.40;;;;;;5048329;28;20028;-77
2022/10/10 19:11:29;;;;;;;29.77;18.15;;;20.70;60.80;;;;;;5043001;28;20492;-80
2022/10/10 19:13:58;;;;;;;31.73;18.20;;;20.70;60.80;;;;;;5036731;28;20033;-80
2022/10/10 19:16:24;;;;;;;29.58;18.08;;;20.70;60.90;;;;;;5045200;28;20104;-82
2022/10/10 19:18:50;;;;;;;29.27;18.73;;;20.70;60.80;;;;;;5046935;28;20033;-82
2022/10/10 19:21:16;;;;;;;32.05;17.98;;;20.70;60.70;;;;;;5048239;28;20029;-77
2022/10/10 19:23:42;;;;;;;31.10;17.55;;;20.70;60.70;;;;;;5046111;28;20044;-77
2022/10/10 19:26:11;;;;;;;27.75;18.13;;;20.70;61.40;;;;;;5049085;28;20315;-78
2022/10/10 19:28:37;;;;;;;26.77;17.23;;;20.70;60.90;;;;;;5049389;28;20025;-77
2022/10/10 19:31:09;;;;;;;28.02;17.13;;;20.70;61.00;;;;;;5049527;28;20028;-81
2022/10/10 19:33:35;;;;;;;27.85;17.80;;;20.70;61.00;;;;;;5049773;28;20503;-81
2022/10/10 19:36:04;;;;;;;31.00;16.85;;;20.70;61.00;;;;;;5014400;28;20033;-77
2022/10/10 19:38:32;;;;;;;28.45;17.48;;;20.70;61.10;;;;;;5043111;28;20029;-78
2022/10/10 19:40:58;;;;;;;25.80;17.35;;;20.70;61.20;;;;;;5049363;28;20482;-76
2022/10/10 19:43:24;;;;;;;24.50;16.95;;;20.70;61.10;;;;;;5047778;28;20462;-76
2022/10/10 19:45:50;;;;;;;27.75;18.20;;;20.70;61.30;;;;;;5048447;28;20036;-76
2022/10/10 19:48:18;;;;;;;24.10;16.70;;;20.80;62.80;;;;;;5048030;28;20036;-76
2022/10/10 19:50:45;;;;;;;25.08;16.75;;;20.80;62.70;;;;;;5048203;28;20441;-77
2022/10/10 19:53:13;;;;;;;23.67;15.95;;;20.80;62.40;;;;;;5048092;28;20060;-78
2022/10/10 19:55:40;;;;;;;28.67;17.05;;;20.80;62.00;;;;;;5048453;28;20033;-77
2022/10/10 19:58:06;;;;;;;24.13;16.90;;;20.80;62.40;;;;;;5048367;28;20033;-76
2022/10/10 20:00:32;;;;;;;26.48;16.40;;;20.80;62.30;;;;;;5049278;28;20120;-78
2022/10/10 20:02:58;;;;;;;23.38;16.23;;;20.80;62.40;;;;;;5049357;28;20112;-78
2022/10/10 20:05:23;;;;;;;24.30;15.20;;;20.80;62.30;;;;;;5048227;28;20485;-76
2022/10/10 20:07:50;;;;;;;31.75;16.10;;;20.80;62.80;;;;;;5049102;28;20116;-76
2022/10/10 20:10:16;;;;;;;28.73;15.55;;;20.80;62.50;;;;;;5049098;28;20029;-76
2022/10/10 20:12:42;;;;;;;26.58;16.02;;;20.80;62.30;;;;;;5033609;28;20029;-76
2022/10/10 20:15:08;;;;;;;28.60;15.60;;;20.80;62.20;;;;;;5046769;28;20501;-76
2022/10/10 20:17:34;;;;;;;23.90;15.35;;;20.80;62.70;;;;;;5046326;28;20499;-75
2022/10/10 20:20:00;;;;;;;26.88;15.32;;;20.80;62.30;;;;;;5048476;28;20112;-76
2022/10/10 20:22:27;;;;;;;25.67;15.35;;;20.80;62.40;;;;;;5045380;28;20108;-75
2022/10/10 20:24:53;;;;;;;27.60;15.00;;;20.80;62.40;;;;;;5048058;28;20037;-77
2022/10/10 20:27:18;;;;;;;25.88;15.30;;;20.80;62.80;;;;;;5047002;28;20075;-76
2022/10/10 20:29:44;;;;;;;25.90;15.60;;;20.90;62.50;;;;;;5047857;28;20037;-76
2022/10/10 20:32:10;;;;;;;28.30;16.50;;;20.80;62.40;;;;;;5047636;28;20040;-76
2022/10/10 20:34:36;;;;;;;23.65;14.52;;;20.90;62.70;;;;;;5047329;28;20151;-76
2022/10/10 20:37:02;;;;;;;25.17;14.60;;;20.90;62.70;;;;;;5048539;28;20085;-76
2022/10/10 20:39:28;;;;;;;26.98;14.63;;;20.90;63.20;;;;;;5044266;28;20055;-76
2022/10/10 20:41:53;;;;;;;22.88;13.80;;;20.90;62.90;;;;;;5030391;28;20053;-75
2022/10/10 20:44:19;;;;;;;20.92;14.18;;;20.90;62.90;;;;;;5047656;28;20028;-76
2022/10/10 20:46:45;;;;;;;29.52;13.60;;;20.90;62.90;;;;;;5032981;28;20045;-76
2022/10/10 20:49:16;;;;;;;23.13;13.30;;;20.90;63.00;;;;;;5052457;28;20029;-76
2022/10/10 20:51:47;;;;;;;28.30;14.23;;;20.90;62.80;;;;;;5051532;28;20097;-76
2022/10/10 20:54:14;;;;;;;21.60;14.05;;;20.90;63.10;;;;;;5052736;28;20025;-76
2022/10/10 20:56:40;;;;;;;23.02;13.85;;;20.90;63.00;;;;;;5052282;28;20396;-76
2022/10/10 20:59:06;;;;;;;22.55;13.32;;;20.90;63.20;;;;;;5053602;28;20028;-76
2022/10/10 21:01:32;;;;;;;36.47;14.70;;;20.90;63.40;;;;;;5036099;28;20477;-76
2022/10/10 21:03:59;;;;;;;22.40;13.65;;;20.90;63.30;;;;;;5054484;28;20093;-77
2022/10/10 21:06:30;;;;;;;22.52;13.60;;;20.80;63.00;;;;;;5050612;28;20510;-75
2022/10/10 21:08:59;;;;;;;22.50;13.90;;;20.80;63.30;;;;;;5050877;28;20070;-75
2022/10/10 21:11:25;;;;;;;21.92;12.73;;;20.80;63.20;;;;;;5050489;28;20071;-75
2022/10/10 21:13:57;;;;;;;28.08;13.57;;;20.80;63.30;;;;;;5052178;28;20062;-75
2022/10/10 21:16:25;;;;;;;24.13;13.15;;;20.80;63.20;;;;;;5051744;28;20025;-77
2022/10/10 21:18:52;;;;;;;28.65;13.88;;;20.80;63.30;;;;;;5051555;28;20552;-76
2022/10/10 21:21:18;;;;;;;23.17;13.70;;;20.90;63.60;;;;;;5051473;28;20029;-76
2022/10/10 21:23:45;;;;;;;22.30;13.32;;;20.90;63.50;;;;;;5052595;28;20029;-76
2022/10/10 21:26:21;;;;;;;26.00;12.93;;;20.90;63.50;;;;;;5053269;28;20028;-76
2022/10/10 21:28:50;;;;;;;25.55;13.25;;;20.90;63.30;;;;;;5052497;28;20059;-76
2022/10/10 21:31:20;;;;;;;23.27;13.13;;;20.90;63.70;;;;;;5053521;28;20060;-77
2022/10/10 21:33:49;;;;;;;31.80;12.93;;;20.90;63.50;;;;;;5036004;28;20036;-77
2022/10/10 21:36:18;;;;;;;20.55;12.93;;;20.90;63.60;;;;;;5046734;28;20025;-74
2022/10/10 21:38:44;;;;;;;20.58;11.88;;;20.90;63.50;;;;;;5042861;28;20056;-74
2022/10/10 21:41:12;;;;;;;36.28;20.05;;;20.80;63.30;;;;;;5035556;28;20486;-75
2022/10/10 21:43:39;;;;;;;24.63;13.90;;;20.70;61.20;;;;;;5053630;28;20033;-75
2022/10/10 21:46:09;;;;;;;24.90;13.00;;;20.70;61.80;;;;;;5038162;28;20413;-75
2022/10/10 21:48:35;;;;;;;19.98;10.65;;;20.70;61.40;;;;;;5044172;28;20053;-75
2022/10/10 21:51:01;;;;;;;21.58;9.02;;;20.70;60.90;;;;;;5044251;28;20063;-74
2022/10/10 21:53:27;;;;;;;15.98;7.43;;;20.70;60.80;;;;;;5032729;28;20026;-78
2022/10/10 21:55:54;;;;;;;19.50;8.10;;;20.70;60.20;;;;;;5032885;28;20043;-78
2022/10/10 21:58:21;;;;;;;20.48;8.57;;;20.70;60.80;;;;;;5049980;28;20382;-77
2022/10/10 22:00:47;;;;;;;19.30;8.40;;;20.80;61.20;;;;;;5049389;28;20021;-78
2022/10/10 22:03:13;;;;;;;22.00;8.50;;;20.80;61.00;;;;;;5053684;28;20061;-78
2022/10/10 22:05:39;;;;;;;17.55;7.85;;;20.80;61.10;;;;;;5050718;28;20032;-75
2022/10/10 22:08:06;;;;;;;24.58;7.93;;;20.80;61.10;;;;;;5051292;28;20027;-76
2022/10/10 22:10:33;;;;;;;16.65;8.10;;;20.80;61.00;;;;;;5033608;28;20487;-75
2022/10/10 22:13:00;;;;;;;18.80;8.02;;;20.80;61.00;;;;;;5052119;28;20025;-74
2022/10/10 22:15:27;;;;;;;17.27;8.25;;;20.80;61.20;;;;;;5049668;28;20020;-76
2022/10/10 22:17:53;;;;;;;13.55;7.50;;;20.80;61.50;;;;;;5044290;28;20079;-76
2022/10/10 22:20:19;;;;;;;15.60;7.35;;;20.80;61.30;;;;;;5047215;28;20028;-77
2022/10/10 22:22:45;;;;;;;15.02;7.80;;;20.80;61.30;;;;;;5050502;28;20411;-76
2022/10/10 22:25:15;;;;;;;14.80;7.15;;;20.80;61.30;;;;;;5050431;28;20526;-76
2022/10/10 22:27:41;;;;;;;;;;;20.70;61.30;;;;;;5047439;28;20028;-76
2022/10/10 22:30:10;;;;;;;16.55;7.28;;;20.70;61.30;;;;;;5046497;28;20288;-76
2022/10/10 22:32:39;;;;;;;14.43;7.40;;;20.80;61.40;;;;;;5050454;28;20480;-76
2022/10/10 22:35:05;;;;;;;16.73;8.45;;;20.80;61.50;;;;;;5050033;28;20033;-76
2022/10/10 22:37:31;;;;;;;19.42;7.88;;;20.70;61.90;;;;;;5048860;28;20078;-76
2022/10/10 22:39:57;;;;;;;14.05;7.65;;;20.70;61.60;;;;;;5032154;28;20029;-76
2022/10/10 22:42:25;;;;;;;12.80;6.95;;;20.70;61.60;;;;;;5050474;28;20077;-75
2022/10/10 22:44:51;;;;;;;19.25;7.50;;;20.80;61.70;;;;;;5047294;28;20028;-81
2022/10/10 22:47:17;;;;;;;17.17;7.40;;;20.80;62.00;;;;;;5051607;28;20033;-75
2022/10/10 22:49:43;;;;;;;14.02;7.05;;;20.80;61.90;;;;;;5033264;28;20112;-76
2022/10/10 22:52:09;;;;;;;20.50;7.05;;;20.90;62.40;;;;;;5049629;28;20481;-75
2022/10/10 22:54:35;;;;;;;19.77;8.95;;;20.90;62.30;;;;;;5038959;28;20029;-75
2022/10/10 22:57:01;;;;;;;17.23;7.57;;;20.90;61.90;;;;;;5051337;28;20032;-75
2022/10/10 22:59:30;;;;;;;18.23;7.60;;;20.80;61.50;;;;;;5051418;28;20485;-75
2022/10/10 23:01:56;;;;;;;13.55;6.55;;;20.80;61.70;;;;;;5052064;28;20033;-75
2022/10/10 23:04:21;;;;;;;16.83;7.35;;;20.70;61.80;;;;;;5052072;28;20017;-75
2022/10/10 23:06:48;;;;;;;16.42;7.68;;;20.80;61.90;;;;;;5050446;28;20040;-76
2022/10/10 23:09:15;;;;;;;16.60;7.97;;;20.70;61.90;;;;;;5051606;28;20032;-75
2022/10/10 23:11:41;;;;;;;19.80;7.68;;;20.70;62.00;;;;;;5050905;28;20029;-75
2022/10/10 23:14:07;;;;;;;17.02;7.93;;;20.70;62.00;;;;;;5033930;28;20049;-75
2022/10/10 23:16:33;;;;;;;14.45;6.95;;;20.70;62.00;;;;;;5050208;28;20033;-75
2022/10/10 23:18:59;;;;;;;12.45;6.88;;;20.80;62.00;;;;;;5050147;28;20036;-75
2022/10/10 23:21:25;;;;;;;15.38;7.40;;;20.70;61.90;;;;;;5050680;28;20024;-75
2022/10/10 23:23:50;;;;;;;23.27;7.28;;;20.80;62.50;;;;;;5051906;28;20025;-76
2022/10/10 23:26:16;;;;;;;19.38;7.57;;;20.70;62.00;;;;;;5051438;28;20052;-75
2022/10/10 23:28:45;;;;;;;14.90;6.90;;;20.70;62.00;;;;;;5017561;28;20037;-75
2022/10/10 23:31:13;;;;;;;11.77;6.78;;;20.70;61.90;;;;;;5051964;28;20028;-75
2022/10/10 23:33:39;;;;;;;13.70;6.90;;;20.70;61.90;;;;;;5050447;28;20095;-75
2022/10/10 23:36:11;;;;;;;14.10;6.78;;;20.70;62.00;;;;;;5051310;28;20029;-76
2022/10/10 23:38:37;;;;;;;13.85;7.07;;;20.70;62.00;;;;;;5051447;28;20025;-76
2022/10/10 23:41:03;;;;;;;12.20;6.15;;;20.70;62.00;;;;;;5051599;28;20017;-76
2022/10/10 23:43:29;;;;;;;12.18;6.47;;;20.70;61.90;;;;;;5051618;28;20048;-76
2022/10/10 23:45:55;;;;;;;14.82;7.57;;;20.70;62.00;;;;;;5050962;28;20029;-75
2022/10/10 23:48:21;;;;;;;14.20;6.38;;;20.70;62.00;;;;;;5050226;28;20115;-76
2022/10/10 23:50:47;;;;;;;14.20;6.78;;;20.70;62.00;;;;;;5050958;28;20033;-77
2022/10/10 23:53:13;;;;;;;17.85;7.15;;;20.70;62.10;;;;;;5030596;23;20050;-70
2022/10/10 23:55:38;;;;;;;16.58;6.47;;;20.70;62.60;;;;;;5009053;28;20060;-70
2022/10/10 23:58:04;;;;;;;16.05;6.93;;;20.70;63.50;;;;;;5010329;28;20057;-71
